Naps Table

Sunday August 28th

Sunday August 28th Naps Table
Selection Race Tipster W L £1 Stake Sky Bet
Peloton 14:05 Gwd Racing Post Postdata 0 14 -26.88474 14/115.00
Maldonado (FR) 14:20 Bev Daily Express The Scout 1 0 -20.81480 8/151.53
Gabster (IRE) 14:35 Gwd Irish Post Karl Hedley 0 6 -9.0491 5/16.00
Sir Viktor (IRE) 14:55 Bev Daily Telegraph Marlborough 0 2 +6.841006 9/43.25
You're Hired 15:10 Gwd Blackpool Gazette Steve Simpson 0 1 +2.311002 5/42.25
Fidaawy 15:10 Gwd Morning Star Farringdon 0 22 -7.89493 9/43.25
Fidaawy 15:10 Gwd Daily Post Mercury 0 3 -8.95492 9/43.25
Zhui Feng (IRE) 15:10 Gwd Sunday Telegraph Whistler 0 3 -41.39459 5/16.00
You're Hired 15:10 Gwd The Guardian 0 2 -44.85456 5/42.25
Stanhope 15:20 Yar Racing Post Newmarket 0 1 -14.26486 7/18.00
Tee It Up Tommo (IRE) 15:45 Gwd Daily Star Sunday Moorestyle 0 5 -48.54452 SP1000
Rockspirit (IRE) 15:55 Yar Belfast Newsletter Wise Owl 1 0 -3.33497 9/25.50
Normandie Lady 16:05 Bev Racing Post Spotlight 1 0 +3.521003 2/13.00
Normandie Lady 16:05 Bev Racing Post The North 0 1 -9.92491 2/13.00
So Beloved 16:20 Gwd Weekender Paul Kealy 0 2 +41.251041 11/82.38
So Beloved 16:20 Gwd The Scotsman Glendale 0 3 +23.741023 11/82.38
So Beloved 16:20 Gwd The Star Patrick Weaver 3 0 -0.52500 11/82.38
So Beloved 16:20 Gwd The Sun Templegate 1 0 -3.69497 11/82.38
So Beloved 16:20 Gwd The Times Rob Wright 0 4 -9.41491 11/82.38
Jallota 16:20 Gwd Racing Post Lambourn 0 1 -10.5490 4/15.00
So Beloved 16:20 Gwd Daily Mail Robin Goodfellow 1 0 -15.81485 11/82.38
So Beloved 16:20 Gwd Sunday Mail Rockavon 0 1 -19.26481 11/82.38
Opal Tiara (IRE) 16:20 Gwd Star Phil Rostron 0 1 -33.06467 8/19.00
Code Red 16:20 Gwd Liverpool Echo Chris Wright 0 11 -39.88461 25/126.00
Convey 16:20 Gwd Daily Record Garry Owen 0 1 -45.7455 5/23.50
Top Beak (IRE) 16:30 Yar Sunday Express Jason Heavey 0 4 -9.43491 6/17.00
Column 16:30 Yar Sunday Mirror Gary Nutting 0 16 -42.46458 11/43.75
Myopic 16:55 Gwd Scottish Express Chris Goulding 0 1 +12.351012 4/15.00
Loveable Helen (IRE) 16:55 Gwd Yorkshire Post The Duke 0 3 -2.96498 7/18.00
Engage (IRE) 16:55 Gwd Gloucestershire Echo Melissa Jones 1 0 -8.54492 3/14.00
Myopic 16:55 Gwd Daily Mirror Newsboy 0 7 -11.82489 4/15.00
Dawn Horizons 16:55 Gwd Yorkshire Evening Post Lee Sobot 2 0 -13.69487 5/23.50
Tatlisu (IRE) 17:05 Yar The Sun On Sunday Sirius 0 2 +17.761017 10/111.00
Musdam (USA) 17:05 Yar Racing Post RP Ratings 1 0 +4.581004 11/43.75
Ifwecan 17:05 Yar Sheffield Star Fortunatus 0 3 -4.05496 10/34.33
Miracle of Medinah 17:05 Yar The Irish Field Rory Delargy 2 0 -29.5471 4/15.00
Limonata (IRE) 17:15 Bev The Press, York Ebor 1 0 -8.68492 SP1000
Limonata (IRE) 17:15 Bev Oldham Evening Chronicle Kevin Richardson 0 3 -18.5482 SP1000
Surety (IRE) 17:40 Yar Racing and Football Outlook 2 0 -4.32496 5/16.00
Anastazia 17:40 Yar Racing Post The Edge 1 0 -18.84482 4/15.00

© Racing Post